createdAt,value
2018-03-17T00:00:09.049Z,90.50
2018-03-17T00:02:36.635Z,90.60
2018-03-17T00:05:04.238Z,90.60
2018-03-17T00:07:35.199Z,90.60
2018-03-17T00:10:03.579Z,90.70
2018-03-17T00:12:31.175Z,90.90
2018-03-17T00:14:58.767Z,90.60
2018-03-17T00:17:26.353Z,90.70
2018-03-17T00:19:53.914Z,90.70
2018-03-17T00:22:21.509Z,90.60
2018-03-17T00:24:49.896Z,90.60
2018-03-17T00:27:18.402Z,90.60
2018-03-17T00:29:46.027Z,90.60
2018-03-17T00:32:14.354Z,91.00
2018-03-17T00:34:41.943Z,91.20
2018-03-17T00:37:09.551Z,91.10
2018-03-17T00:39:37.124Z,90.50
2018-03-17T00:42:04.763Z,91.00
2018-03-17T00:44:33.418Z,91.00
2018-03-17T00:47:00.976Z,91.00
2018-03-17T00:49:28.537Z,91.10
2018-03-17T00:51:56.125Z,91.20
2018-03-17T00:54:23.711Z,91.20
2018-03-17T00:56:51.298Z,91.20
2018-03-17T00:59:18.883Z,91.40
2018-03-17T01:01:46.468Z,91.50
2018-03-17T01:04:14.055Z,91.70
2018-03-17T01:06:41.673Z,91.90
2018-03-17T01:09:09.325Z,91.80
2018-03-17T01:11:36.898Z,91.80
2018-03-17T01:14:04.786Z,91.80
2018-03-17T01:16:32.382Z,91.90
2018-03-17T01:18:59.974Z,91.90
2018-03-17T01:21:27.639Z,91.70
2018-03-17T01:23:55.263Z,91.80
2018-03-17T01:26:23.603Z,92.10
2018-03-17T01:28:51.247Z,92.00
2018-03-17T01:31:18.847Z,92.00
2018-03-17T01:33:46.423Z,92.00
2018-03-17T01:36:14.022Z,91.90
2018-03-17T01:38:41.602Z,92.00
2018-03-17T01:41:09.172Z,92.20
2018-03-17T01:43:37.210Z,92.40
2018-03-17T01:46:04.776Z,92.50
2018-03-17T01:48:32.338Z,92.50
2018-03-17T01:50:59.935Z,92.60
2018-03-17T01:53:27.510Z,92.90
2018-03-17T01:55:55.091Z,93.00
2018-03-17T01:58:22.687Z,93.10
2018-03-17T02:00:50.265Z,93.10
2018-03-17T02:03:18.101Z,93.10
2018-03-17T02:05:46.458Z,93.10
2018-03-17T02:08:14.083Z,93.10
2018-03-17T02:10:41.683Z,93.00
2018-03-17T02:13:09.774Z,93.20
2018-03-17T02:15:38.136Z,93.20
2018-03-17T02:18:05.713Z,93.20
2018-03-17T02:20:33.305Z,93.10
2018-03-17T02:23:01.681Z,92.90
2018-03-17T02:25:29.265Z,92.90
2018-03-17T02:27:57.133Z,92.90
2018-03-17T02:30:24.706Z,92.90
2018-03-17T02:32:52.294Z,92.90
2018-03-17T02:35:19.895Z,93.00
2018-03-17T02:37:48.239Z,93.10
2018-03-17T02:40:16.182Z,92.90
2018-03-17T02:42:43.791Z,92.90
2018-03-17T02:45:11.367Z,92.80
2018-03-17T02:47:38.941Z,92.80
2018-03-17T02:50:07.298Z,93.10
2018-03-17T02:52:34.902Z,92.80
2018-03-17T02:55:02.941Z,92.40
2018-03-17T02:57:31.284Z,92.20
2018-03-17T02:59:58.859Z,92.10
2018-03-17T03:02:26.459Z,92.20
2018-03-17T03:04:54.023Z,92.20
2018-03-17T03:07:22.391Z,92.40
2018-03-17T03:09:50.114Z,92.30
2018-03-17T03:12:17.680Z,92.30
2018-03-17T03:14:45.260Z,92.20
2018-03-17T03:17:12.859Z,92.40
2018-03-17T03:19:40.434Z,92.30
2018-03-17T03:22:07.999Z,92.60
2018-03-17T03:24:35.624Z,92.90
2018-03-17T03:27:03.200Z,92.90
2018-03-17T03:29:31.546Z,93.30
2018-03-17T03:31:59.128Z,93.30
2018-03-17T03:34:26.702Z,93.40
2018-03-17T03:36:55.035Z,93.50
2018-03-17T03:39:23.387Z,93.50
2018-03-17T03:41:50.973Z,93.50
2018-03-17T03:44:18.532Z,93.40
2018-03-17T03:46:46.125Z,93.60
2018-03-17T03:49:13.682Z,93.40
2018-03-17T03:51:41.262Z,93.30
2018-03-17T03:54:08.848Z,93.80
2018-03-17T03:56:37.173Z,93.40
2018-03-17T03:59:04.746Z,93.40
2018-03-17T04:01:32.387Z,93.30
2018-03-17T04:03:59.956Z,92.80
2018-03-17T04:06:27.979Z,93.00
2018-03-17T04:08:55.623Z,93.00
2018-03-17T04:11:23.165Z,93.10
2018-03-17T04:13:51.036Z,93.10
2018-03-17T04:16:18.616Z,93.20
2018-03-17T04:18:46.206Z,93.30
2018-03-17T04:21:14.611Z,93.60
2018-03-17T04:23:42.181Z,93.30
2018-03-17T04:26:09.749Z,93.20
2018-03-17T04:28:37.450Z,93.30
2018-03-17T04:31:05.053Z,93.20
2018-03-17T04:33:33.402Z,93.60
2018-03-17T04:36:01.006Z,93.40
2018-03-17T04:38:29.347Z,93.30
2018-03-17T04:40:56.959Z,93.30
2018-03-17T04:43:25.319Z,93.20
2018-03-17T04:45:52.886Z,93.20
2018-03-17T04:48:20.465Z,92.80
2018-03-17T04:50:48.827Z,92.80
2018-03-17T04:53:16.390Z,92.80
2018-03-17T04:55:44.751Z,92.80
2018-03-17T04:58:12.343Z,92.70
2018-03-17T05:00:39.935Z,92.50
2018-03-17T05:03:07.536Z,92.70
2018-03-17T05:05:35.159Z,92.70
2018-03-17T05:08:02.727Z,92.40
2018-03-17T05:10:30.323Z,92.10
2018-03-17T05:12:57.910Z,92.20
2018-03-17T05:15:25.684Z,91.80
2018-03-17T05:17:54.044Z,92.40
2018-03-17T05:20:21.656Z,92.60
2018-03-17T05:22:49.232Z,92.80
2018-03-17T05:25:16.938Z,92.60
2018-03-17T05:27:44.535Z,92.90
2018-03-17T05:30:12.101Z,93.00
2018-03-17T05:32:39.766Z,93.00
2018-03-17T05:35:07.347Z,93.20
2018-03-17T05:37:34.935Z,93.10
2018-03-17T05:40:02.530Z,93.10
2018-03-17T05:42:30.883Z,93.30
2018-03-17T05:44:58.480Z,93.00
2018-03-17T05:47:26.035Z,92.70
2018-03-17T05:49:54.403Z,92.70
2018-03-17T05:52:21.992Z,92.70
2018-03-17T05:54:50.316Z,92.20
2018-03-17T05:57:17.914Z,92.20
2018-03-17T05:59:45.470Z,91.80
2018-03-17T06:02:13.647Z,92.30
2018-03-17T06:04:41.256Z,91.60
2018-03-17T06:07:08.851Z,91.40
2018-03-17T06:09:36.431Z,91.30
2018-03-17T06:12:04.054Z,91.80
2018-03-17T06:14:31.615Z,91.60
2018-03-17T06:16:59.198Z,91.80
2018-03-17T06:19:26.790Z,92.00
2018-03-17T06:21:54.362Z,92.00
2018-03-17T06:24:23.056Z,91.60
2018-03-17T06:26:51.423Z,91.30
2018-03-17T06:29:19.008Z,91.30
2018-03-17T06:31:47.383Z,90.20
2018-03-17T06:34:15.715Z,90.30
2018-03-17T06:36:43.307Z,90.10
2018-03-17T06:39:10.891Z,90.10
2018-03-17T06:41:38.454Z,88.50
2018-03-17T06:44:06.783Z,87.80
2018-03-17T06:46:34.371Z,87.70
2018-03-17T06:49:01.936Z,88.20
2018-03-17T06:51:29.486Z,87.60
2018-03-17T06:53:57.070Z,87.30
2018-03-17T06:56:24.628Z,87.20
2018-03-17T06:58:52.183Z,87.60
2018-03-17T07:01:20.060Z,87.00
2018-03-17T07:03:51.071Z,86.40
2018-03-17T07:06:20.372Z,86.80
2018-03-17T07:08:51.021Z,85.40
2018-03-17T07:11:18.681Z,85.30
2018-03-17T07:13:46.266Z,85.60
2018-03-17T07:16:13.858Z,84.20
2018-03-17T07:18:42.192Z,84.20
2018-03-17T07:21:09.752Z,84.10
2018-03-17T07:23:37.409Z,83.00
2018-03-17T07:26:04.967Z,82.20
2018-03-17T07:28:32.543Z,82.20
2018-03-17T07:31:00.162Z,82.30
2018-03-17T07:33:27.735Z,81.90
2018-03-17T07:35:55.299Z,82.40
2018-03-17T07:38:22.887Z,82.90
2018-03-17T07:40:50.486Z,83.00
2018-03-17T07:43:18.048Z,82.10
2018-03-17T07:45:46.400Z,82.30
2018-03-17T07:48:14.054Z,82.80
2018-03-17T07:50:41.618Z,80.30
2018-03-17T07:53:09.210Z,80.70
2018-03-17T07:55:36.786Z,80.30
2018-03-17T07:58:05.114Z,79.20
2018-03-17T08:00:32.707Z,79.50
2018-03-17T08:03:00.267Z,80.30
2018-03-17T08:05:27.831Z,79.70
2018-03-17T08:07:55.610Z,78.60
2018-03-17T08:10:23.172Z,78.70
2018-03-17T08:12:50.738Z,79.20
2018-03-17T08:15:18.710Z,79.10
2018-03-17T08:17:46.279Z,78.90
2018-03-17T08:20:14.640Z,77.90
2018-03-17T08:22:42.391Z,77.70
2018-03-17T08:25:09.952Z,77.30
2018-03-17T08:27:37.545Z,77.70
2018-03-17T08:30:05.619Z,77.10
2018-03-17T08:32:33.191Z,76.00
2018-03-17T08:35:01.521Z,76.70
2018-03-17T08:37:29.127Z,76.20
2018-03-17T08:39:56.717Z,75.70
2018-03-17T08:42:24.335Z,75.80
2018-03-17T08:44:51.927Z,75.00
2018-03-17T08:47:19.551Z,75.00
2018-03-17T08:49:47.143Z,74.40
2018-03-17T08:52:14.710Z,74.70
2018-03-17T08:54:42.346Z,73.40
2018-03-17T08:57:09.937Z,73.10
2018-03-17T08:59:37.532Z,73.30
2018-03-17T09:02:05.120Z,73.00
2018-03-17T09:04:32.690Z,73.60
2018-03-17T09:07:00.286Z,74.10
2018-03-17T09:09:27.883Z,74.40
2018-03-17T09:11:55.455Z,74.30
2018-03-17T09:14:23.028Z,73.90
2018-03-17T09:16:51.132Z,73.40
2018-03-17T09:19:18.732Z,72.70
2018-03-17T09:21:46.332Z,72.20
2018-03-17T09:24:14.029Z,73.20
2018-03-17T09:26:41.644Z,72.50
2018-03-17T09:29:09.232Z,72.80
2018-03-17T09:31:36.986Z,72.30
2018-03-17T09:34:04.563Z,72.40
2018-03-17T09:36:32.131Z,73.20
2018-03-17T09:38:59.739Z,73.40
2018-03-17T09:41:28.084Z,73.20
2018-03-17T09:43:55.664Z,73.10
2018-03-17T09:46:23.263Z,74.30
2018-03-17T09:48:50.834Z,75.40
2018-03-17T09:51:18.405Z,76.70
2018-03-17T09:53:46.315Z,77.80
2018-03-17T09:56:13.920Z,77.60
2018-03-17T09:58:41.483Z,77.00
2018-03-17T10:01:09.089Z,78.70
2018-03-17T10:03:36.702Z,77.70
2018-03-17T10:06:04.396Z,78.10
2018-03-17T10:08:31.991Z,78.60
2018-03-17T10:10:59.590Z,81.20
2018-03-17T10:13:27.158Z,80.00
2018-03-17T10:15:54.771Z,79.70
2018-03-17T10:18:22.370Z,81.90
2018-03-17T10:20:49.970Z,83.00
2018-03-17T10:23:17.567Z,83.10
2018-03-17T10:25:45.207Z,83.20
2018-03-17T10:28:12.785Z,83.80
2018-03-17T10:30:47.287Z,83.20
2018-03-17T10:33:14.913Z,83.20
2018-03-17T10:35:42.479Z,81.90
2018-03-17T10:38:10.842Z,79.60
2018-03-17T10:40:39.951Z,77.00
2018-03-17T10:43:07.555Z,76.80
2018-03-17T10:45:35.582Z,75.10
2018-03-17T10:48:03.999Z,73.40
2018-03-17T10:50:32.335Z,71.90
2018-03-17T10:52:59.943Z,72.00
2018-03-17T10:55:27.529Z,72.30
2018-03-17T10:57:55.128Z,71.50
2018-03-17T11:00:28.000Z,71.80
2018-03-17T11:02:55.683Z,72.00
2018-03-17T11:05:27.171Z,71.70
2018-03-17T11:07:54.911Z,71.80
2018-03-17T11:10:23.627Z,69.90
2018-03-17T11:12:51.462Z,69.70
2018-03-17T11:18:23.688Z,70.90
2018-03-17T11:20:51.439Z,71.40
2018-03-17T11:23:21.237Z,70.10
2018-03-17T11:25:49.021Z,70.10
2018-03-17T11:28:17.398Z,68.40
2018-03-17T11:30:47.284Z,67.90
2018-03-17T11:33:15.296Z,67.90
2018-03-17T11:35:43.835Z,66.60
2018-03-17T11:38:11.453Z,66.90
2018-03-17T11:40:39.603Z,67.90
2018-03-17T11:43:07.274Z,67.10
2018-03-17T11:45:36.612Z,67.80
2018-03-17T11:48:04.390Z,67.80
2018-03-17T11:50:32.045Z,66.20
2018-03-17T11:52:59.691Z,66.20
2018-03-17T11:55:27.373Z,66.80
2018-03-17T11:57:56.148Z,66.30
2018-03-17T12:00:24.341Z,65.80
2018-03-17T12:02:52.182Z,64.40
2018-03-17T12:05:20.183Z,63.80
2018-03-17T12:07:48.067Z,62.90
2018-03-17T12:10:15.647Z,62.30
2018-03-17T12:12:43.217Z,61.50
2018-03-17T12:15:11.097Z,61.80
2018-03-17T12:17:38.803Z,61.60
2018-03-17T12:20:06.386Z,62.20
2018-03-17T12:22:34.015Z,61.80
2018-03-17T12:25:01.583Z,62.10
2018-03-17T12:27:29.173Z,61.60
2018-03-17T12:29:56.774Z,60.30
2018-03-17T12:32:24.336Z,59.90
2018-03-17T12:34:52.479Z,58.60
2018-03-17T12:37:20.865Z,59.50
2018-03-17T12:39:48.438Z,59.40
2018-03-17T12:42:16.037Z,59.30
2018-03-17T12:44:43.615Z,59.00
2018-03-17T12:47:11.215Z,60.20
2018-03-17T12:49:38.796Z,59.80
2018-03-17T12:52:06.406Z,61.30
2018-03-17T12:54:33.966Z,61.70
2018-03-17T12:57:01.575Z,61.30
2018-03-17T12:59:29.135Z,61.00
2018-03-17T13:01:56.760Z,60.30
2018-03-17T13:04:24.324Z,60.90
2018-03-17T13:06:51.934Z,59.40
2018-03-17T13:09:19.532Z,58.10
2018-03-17T13:11:47.923Z,58.50
2018-03-17T13:14:15.619Z,58.50
2018-03-17T13:16:44.150Z,58.00
2018-03-17T13:19:23.685Z,56.80
2018-03-17T13:21:52.935Z,57.30
2018-03-17T13:24:21.640Z,55.40
2018-03-17T13:27:01.295Z,55.20
2018-03-17T13:29:28.926Z,54.20
2018-03-17T13:31:57.295Z,53.90
2018-03-17T13:34:24.951Z,53.70
2018-03-17T13:37:04.466Z,54.10
2018-03-17T13:39:32.107Z,53.50
2018-03-17T13:41:59.756Z,53.30
2018-03-17T13:44:27.840Z,52.90
2018-03-17T13:46:55.518Z,52.80
2018-03-17T13:49:23.113Z,53.10
2018-03-17T13:51:51.579Z,53.20
2018-03-17T13:54:19.362Z,53.20
2018-03-17T13:56:47.087Z,53.10
2018-03-17T13:59:15.303Z,53.00
2018-03-17T14:01:43.121Z,53.20
2018-03-17T14:04:10.819Z,53.60
2018-03-17T14:06:39.522Z,54.50
2018-03-17T14:09:07.544Z,55.40
2018-03-17T14:11:35.818Z,56.20
2018-03-17T14:14:03.441Z,56.90
2018-03-17T14:16:31.191Z,55.50
2018-03-17T14:18:58.830Z,55.80
2018-03-17T14:21:26.447Z,56.40
2018-03-17T14:23:54.795Z,56.10
2018-03-17T14:26:22.411Z,56.00
2018-03-17T14:28:50.043Z,56.10
2018-03-17T14:31:17.679Z,55.40
2018-03-17T14:33:46.075Z,55.90
2018-03-17T14:36:13.636Z,56.20
2018-03-17T14:38:41.195Z,56.10
2018-03-17T14:41:09.627Z,54.80
2018-03-17T14:43:37.233Z,54.80
2018-03-17T14:46:04.794Z,54.80
2018-03-17T14:48:33.208Z,56.50
2018-03-17T14:51:01.566Z,59.30
2018-03-17T14:53:29.179Z,59.30
2018-03-17T14:55:57.039Z,58.80
2018-03-17T14:58:24.603Z,59.80
2018-03-17T15:00:52.192Z,58.50
2018-03-17T15:03:19.795Z,56.90
2018-03-17T15:05:47.383Z,56.80
2018-03-17T15:08:15.806Z,55.80
2018-03-17T15:10:43.471Z,55.80
2018-03-17T15:13:11.057Z,56.10
2018-03-17T15:15:38.616Z,55.30
2018-03-17T15:18:06.717Z,55.30
2018-03-17T15:20:34.333Z,54.60
2018-03-17T15:23:02.007Z,54.30
2018-03-17T15:25:29.626Z,54.60
2018-03-17T15:27:57.199Z,54.20
2018-03-17T15:30:24.810Z,54.50
2018-03-17T15:32:52.397Z,53.90
2018-03-17T15:35:19.983Z,54.40
2018-03-17T15:37:47.586Z,55.00
2018-03-17T15:40:15.161Z,55.70
2018-03-17T15:42:43.503Z,58.70
2018-03-17T15:45:11.087Z,62.70
2018-03-17T15:47:38.665Z,66.30
2018-03-17T15:50:06.262Z,69.00
2018-03-17T15:52:33.874Z,67.30
2018-03-17T15:55:01.448Z,67.90
2018-03-17T15:57:29.034Z,67.50
2018-03-17T15:59:56.665Z,66.60
2018-03-17T16:02:24.272Z,65.50
2018-03-17T16:04:52.142Z,63.00
2018-03-17T16:07:19.696Z,62.30
2018-03-17T16:09:47.322Z,60.00
2018-03-17T16:12:14.916Z,58.90
2018-03-17T16:14:42.487Z,58.20
2018-03-17T16:17:10.081Z,56.50
2018-03-17T16:19:37.643Z,55.10
2018-03-17T16:22:05.358Z,55.20
2018-03-17T16:24:33.448Z,53.60
2018-03-17T16:27:01.010Z,50.90
2018-03-17T16:29:29.331Z,46.70
2018-03-17T16:31:57.467Z,46.70
2018-03-17T16:34:25.057Z,44.00
2018-03-17T16:36:52.634Z,41.80
2018-03-17T16:39:20.447Z,39.50
2018-03-17T16:41:48.008Z,38.90
2018-03-17T16:44:15.577Z,37.40
2018-03-17T16:46:44.640Z,36.60
2018-03-17T16:49:12.181Z,36.60
2018-03-17T16:51:39.780Z,37.30
2018-03-17T16:54:07.419Z,37.20
2018-03-17T16:56:35.351Z,37.90
2018-03-17T16:59:02.943Z,39.40
2018-03-17T17:01:30.510Z,40.20
2018-03-17T17:03:58.454Z,40.00
2018-03-17T17:06:26.015Z,40.00
2018-03-17T17:08:54.370Z,39.70
2018-03-17T17:11:22.006Z,39.60
2018-03-17T17:13:49.585Z,40.30
2018-03-17T17:16:17.181Z,41.30
2018-03-17T17:18:45.517Z,42.20
2018-03-17T17:21:13.430Z,42.20
2018-03-17T17:23:42.120Z,42.60
2018-03-17T17:26:10.463Z,43.40
2018-03-17T17:28:38.074Z,43.20
2018-03-17T17:31:06.424Z,42.10
2018-03-17T17:33:33.987Z,42.10
2018-03-17T17:36:01.597Z,42.50
2018-03-17T17:38:29.155Z,42.80
2018-03-17T17:40:56.734Z,42.60
2018-03-17T17:43:24.811Z,43.20
2018-03-17T17:45:52.482Z,42.80
2018-03-17T17:48:20.015Z,43.00
2018-03-17T17:50:48.373Z,43.80
2018-03-17T17:53:16.202Z,43.70
2018-03-17T17:55:43.799Z,45.10
2018-03-17T17:58:11.366Z,46.30
2018-03-17T18:00:39.203Z,47.30
2018-03-17T18:03:06.781Z,48.70
2018-03-17T18:05:34.367Z,50.30
2018-03-17T18:08:02.190Z,50.50
2018-03-17T18:10:32.699Z,51.60
2018-03-17T18:13:00.279Z,51.80
2018-03-17T18:15:28.087Z,52.40
2018-03-17T18:17:55.647Z,52.70
2018-03-17T18:20:23.231Z,53.00
2018-03-17T18:22:51.622Z,53.70
2018-03-17T18:25:19.890Z,53.60
2018-03-17T18:27:47.451Z,54.50
2018-03-17T18:30:15.834Z,55.50
2018-03-17T18:32:43.450Z,55.50
2018-03-17T18:35:11.043Z,56.10
2018-03-17T18:37:39.131Z,56.30
2018-03-17T18:40:06.739Z,57.30
2018-03-17T18:42:34.336Z,57.40
2018-03-17T18:45:02.355Z,57.20
2018-03-17T18:47:30.191Z,56.90
2018-03-17T18:49:57.801Z,57.20
2018-03-17T18:52:25.432Z,57.60
2018-03-17T18:54:53.766Z,57.80
2018-03-17T18:57:21.346Z,57.80
2018-03-17T18:59:48.947Z,58.10
2018-03-17T19:02:17.462Z,58.80
2018-03-17T19:04:45.081Z,58.90
2018-03-17T19:07:13.423Z,59.50
2018-03-17T19:09:41.071Z,59.40
2018-03-17T19:12:08.684Z,58.80
2018-03-17T19:14:36.252Z,58.90
2018-03-17T19:17:04.625Z,58.80
2018-03-17T19:19:32.192Z,58.80
2018-03-17T19:22:00.560Z,58.80
2018-03-17T19:24:28.152Z,58.30
2018-03-17T19:26:56.910Z,58.80
2018-03-17T19:29:24.700Z,58.70
2018-03-17T19:31:52.330Z,58.50
2018-03-17T19:34:19.930Z,59.10
2018-03-17T19:36:48.280Z,58.80
2018-03-17T19:39:15.863Z,58.80
2018-03-17T19:41:44.224Z,58.90
2018-03-17T19:44:11.837Z,58.40
2018-03-17T19:46:40.238Z,58.70
2018-03-17T19:49:07.811Z,58.70
2018-03-17T19:51:35.403Z,58.60
2018-03-17T19:54:02.986Z,59.40
2018-03-17T19:56:31.854Z,59.40
2018-03-17T19:58:59.436Z,59.40
2018-03-17T20:01:27.062Z,59.50
2018-03-17T20:03:54.667Z,59.70
2018-03-17T20:06:23.523Z,59.70
2018-03-17T20:08:51.148Z,59.60
2018-03-17T20:11:18.722Z,60.30
2018-03-17T20:13:46.338Z,60.10
2018-03-17T20:16:13.938Z,60.40
2018-03-17T20:18:41.500Z,60.80
2018-03-17T20:21:09.940Z,61.50
2018-03-17T20:23:37.694Z,61.20
2018-03-17T20:26:05.287Z,61.70
2018-03-17T20:28:32.891Z,62.20
2018-03-17T20:31:00.485Z,63.70
2018-03-17T20:33:28.092Z,63.60
2018-03-17T20:35:55.717Z,63.80
2018-03-17T20:38:23.300Z,64.50
2018-03-17T20:40:50.894Z,66.20
2018-03-17T20:43:18.483Z,66.20
2018-03-17T20:45:46.091Z,66.80
2018-03-17T20:48:14.480Z,68.90
2018-03-17T20:50:42.427Z,68.90
2018-03-17T20:53:10.023Z,69.40
2018-03-17T20:55:37.608Z,70.40
2018-03-17T20:58:05.444Z,71.20
2018-03-17T21:00:33.056Z,71.70
2018-03-17T21:03:00.654Z,72.50
2018-03-17T21:05:29.014Z,75.10
2018-03-17T21:07:56.607Z,74.50
2018-03-17T21:10:24.182Z,75.50
2018-03-17T21:12:51.769Z,75.60
2018-03-17T21:15:20.029Z,75.70
2018-03-17T21:17:47.608Z,75.60
2018-03-17T21:20:15.212Z,76.30
2018-03-17T21:22:42.823Z,77.40
2018-03-17T21:25:10.662Z,78.10
2018-03-17T21:27:38.996Z,79.10
2018-03-17T21:30:06.579Z,79.00
2018-03-17T21:32:34.196Z,79.80
2018-03-17T21:35:01.911Z,79.60
2018-03-17T21:37:30.102Z,80.40
2018-03-17T21:39:57.703Z,81.30
2018-03-17T21:42:25.301Z,81.00
2018-03-17T21:44:53.193Z,80.90
2018-03-17T21:47:20.764Z,81.00
2018-03-17T21:49:48.339Z,81.60
2018-03-17T21:52:15.937Z,81.30
2018-03-17T21:54:43.543Z,82.80
2018-03-17T21:57:11.124Z,82.60
2018-03-17T21:59:38.687Z,82.60
2018-03-17T22:02:07.054Z,83.10
2018-03-17T22:04:34.623Z,83.10
2018-03-17T22:07:02.237Z,83.80
2018-03-17T22:09:29.811Z,83.90
2018-03-17T22:11:57.815Z,84.00
2018-03-17T22:14:25.378Z,84.10
2018-03-17T22:16:52.965Z,84.40
2018-03-17T22:19:21.112Z,84.40
2018-03-17T22:21:48.706Z,84.00
2018-03-17T22:24:16.323Z,84.00
2018-03-17T22:26:44.341Z,83.90
2018-03-17T22:29:12.685Z,83.50
2018-03-17T22:31:40.265Z,83.50
2018-03-17T22:34:08.630Z,83.50
2018-03-17T22:36:37.709Z,82.70
2018-03-17T22:39:05.392Z,82.70
2018-03-17T22:41:33.038Z,82.70
2018-03-17T22:44:00.946Z,81.80
2018-03-17T22:46:28.534Z,81.90
2018-03-17T22:48:56.132Z,82.70
2018-03-17T22:51:23.728Z,82.80
2018-03-17T22:53:51.330Z,83.10
2018-03-17T22:56:18.923Z,82.80
2018-03-17T22:58:46.514Z,82.90
2018-03-17T23:01:14.175Z,82.70
2018-03-17T23:03:41.746Z,83.10
2018-03-17T23:06:09.335Z,82.70
2018-03-17T23:08:37.163Z,82.60
2018-03-17T23:11:04.742Z,81.50
2018-03-17T23:13:33.091Z,81.90
2018-03-17T23:16:00.978Z,81.70
2018-03-17T23:18:28.553Z,82.00
2018-03-17T23:20:56.139Z,81.90
2018-03-17T23:23:23.735Z,81.70
2018-03-17T23:25:51.640Z,81.70
2018-03-17T23:28:19.243Z,81.80
2018-03-17T23:30:46.802Z,81.40
2018-03-17T23:33:14.838Z,81.30
2018-03-17T23:35:42.444Z,80.90
2018-03-17T23:38:10.188Z,81.20
2018-03-17T23:40:38.605Z,80.10
2018-03-17T23:43:06.227Z,80.10
2018-03-17T23:45:33.840Z,80.60
2018-03-17T23:48:01.515Z,79.70
2018-03-17T23:50:29.154Z,78.80
2018-03-17T23:52:57.585Z,78.70
2018-03-17T23:55:25.208Z,78.00
2018-03-17T23:57:52.826Z,77.40
